Time;durP1;ratioP1;P1;durP2;ratioP2;P2;SDS_P1;SDS_P2;PMS_P1;PMS_P2;Temp;Humidity;BMP_temperature;BMP_pressure;BME280_temperature;BME280_humidity;BME280_pressure;Samples;Min_cycle;Max_cycle;Signal;HPM_P1;HPM_P2
2022/08/23 00:01:39;;;;;;;;;7.25;6.00;;;29.46;97198.17;;;;119061;1190;25238;-63
2022/08/23 00:04:15;;;;;;;;;5.25;5.25;;;29.47;97200.99;;;;119041;1190;25350;-60
2022/08/23 00:12:37;;;;;;;;;5.00;4.25;;;29.48;97206.60;;;;119029;1189;26079;-61
2022/08/23 00:15:07;;;;;;;;;7.00;6.33;;;29.46;97209.50;;;;119028;1189;26325;-62
2022/08/23 00:17:36;;;;;;;;;4.75;4.00;;;29.44;97207.91;;;;119017;1189;25415;-62
2022/08/23 00:20:07;;;;;;;;;7.75;5.00;;;29.44;97206.91;;;;119052;1189;25163;-60
2022/08/23 00:22:36;;;;;;;;;5.25;5.00;;;29.42;97207.96;;;;119031;1189;24720;-60
2022/08/23 00:25:08;;;;;;;;;6.00;5.00;;;29.42;97211.41;;;;119040;1190;26382;-61
2022/08/23 00:27:36;;;;;;;;;6.75;6.00;;;29.42;97211.39;;;;119012;1190;24945;-60
2022/08/23 00:30:07;;;;;;;;;4.75;4.75;;;29.42;97212.53;;;;118997;1189;24744;-61
2022/08/23 00:32:36;;;;;;;;;7.00;5.00;;;29.42;97211.13;;;;119008;1190;25629;-61
2022/08/23 00:35:06;;;;;;;;;5.00;4.50;;;29.42;97212.61;;;;119024;1189;26010;-61
2022/08/23 00:37:35;;;;;;;;;5.00;5.00;;;29.43;97212.24;;;;119042;1189;25459;-61
2022/08/23 00:40:07;;;;;;;;;4.25;4.00;;;29.42;97209.65;;;;119030;1189;26155;-66
2022/08/23 00:48:16;;;;;;;;;4.75;4.75;;;29.42;97214.65;;;;119043;1189;25555;-62
2022/08/23 00:50:55;;;;;;;;;4.25;3.25;;;29.38;97218.79;;;;118968;1190;26459;-61
2022/08/23 00:53:28;;;;;;;;;7.25;5.50;;;29.38;97218.45;;;;119016;1189;25527;-64
2022/08/23 00:55:59;;;;;;;;;7.75;6.00;;;29.36;97218.23;;;;119030;1189;25410;-61
2022/08/23 00:58:28;;;;;;;;;6.00;6.00;;;29.35;97214.53;;;;119032;1189;25166;-60
2022/08/23 01:00:59;;;;;;;;;10.00;8.00;;;29.34;97216.20;;;;119026;1189;25966;-60
2022/08/23 01:03:28;;;;;;;;;2.00;2.00;;;29.34;97216.14;;;;118924;1190;26520;-60
2022/08/23 01:06:11;;;;;;;;;4.50;4.00;;;29.37;97216.74;;;;118995;1189;26404;-61
2022/08/23 01:08:42;;;;;;;;;6.50;5.25;;;29.38;97219.69;;;;119015;1190;26508;-60
2022/08/23 01:11:32;;;;;;;;;4.75;4.00;;;29.38;97214.92;;;;119024;1190;25576;-59
2022/08/23 01:14:10;;;;;;;;;5.00;4.00;;;29.41;97214.45;;;;119021;1190;25331;-60
2022/08/23 01:16:46;;;;;;;;;5.50;5.50;;;29.42;97211.94;;;;119037;1189;25348;-60
2022/08/23 01:19:44;;;;;;;;;5.25;5.25;;;29.41;97207.51;;;;119031;1189;25268;-60
2022/08/23 01:22:27;;;;;;;;;6.25;6.25;;;29.46;97209.47;;;;119032;1190;24931;-63
2022/08/23 01:24:56;;;;;;;;;6.67;5.00;;;29.47;97213.16;;;;119021;1189;25755;-64
2022/08/23 01:27:36;;;;;;;;;3.25;3.25;;;29.44;97210.15;;;;119013;1188;27016;-62
2022/08/23 01:30:09;;;;;;;;;4.75;4.75;;;29.39;97206.39;;;;119011;1190;25840;-65
2022/08/23 01:32:44;;;;;;;;;8.50;6.25;;;29.35;97208.77;;;;119019;1189;25235;-64
2022/08/23 01:35:13;;;;;;;;;5.75;4.75;;;29.32;97205.35;;;;118994;1189;25070;-62
2022/08/23 01:37:41;;;;;;;;;5.75;5.75;;;29.31;97202.04;;;;119032;1190;25160;-60
2022/08/23 01:40:10;;;;;;;;;8.25;4.25;;;29.29;97204.39;;;;119042;1190;26076;-61
2022/08/23 01:42:41;;;;;;;;;4.75;3.75;;;29.29;97205.70;;;;119058;1189;25831;-62
2022/08/23 01:45:11;;;;;;;;;5.25;5.00;;;29.24;97211.24;;;;119042;1190;25484;-61
2022/08/23 01:47:39;;;;;;;;;5.00;5.00;;;29.23;97207.71;;;;119034;1189;25029;-60
2022/08/23 01:50:10;;;;;;;;;5.75;5.00;;;29.21;97209.80;;;;119050;1190;24936;-62
2022/08/23 01:52:39;;;;;;;;;5.75;5.75;;;29.23;97208.84;;;;119015;1190;25608;-60
2022/08/23 01:55:14;;;;;;;;;4.00;4.00;;;29.24;97210.16;;;;119016;1189;25561;-63
2022/08/23 01:57:43;;;;;;;;;4.75;4.75;;;29.23;97215.23;;;;119016;1189;25199;-61
2022/08/23 02:00:15;;;;;;;;;4.25;4.25;;;29.22;97213.44;;;;119019;1189;25729;-60
2022/08/23 02:02:45;;;;;;;;;5.00;5.00;;;29.21;97216.86;;;;119023;1189;24816;-61
2022/08/23 02:05:14;;;;;;;;;4.33;4.00;;;29.21;97220.29;;;;118936;1191;25736;-59
2022/08/23 02:07:46;;;;;;;;;6.00;5.75;;;29.21;97221.91;;;;119032;1190;25631;-60
2022/08/23 02:10:15;;;;;;;;;7.50;4.50;;;29.20;97226.10;;;;118995;1190;24921;-61
2022/08/23 02:12:43;;;;;;;;;6.25;5.00;;;29.19;97228.15;;;;118985;1189;25061;-60
2022/08/23 02:15:12;;;;;;;;;5.75;5.00;;;29.19;97233.76;;;;119022;1189;24929;-60
2022/08/23 02:17:40;;;;;;;;;7.33;6.00;;;29.18;97236.89;;;;119004;1189;25028;-60
2022/08/23 02:20:09;;;;;;;;;5.75;5.25;;;29.19;97240.93;;;;119020;1190;24885;-61
2022/08/23 02:22:38;;;;;;;;;7.25;4.25;;;29.19;97235.67;;;;119022;1189;25926;-59
2022/08/23 02:25:07;;;;;;;;;4.50;3.50;;;29.18;97237.68;;;;119032;1189;25544;-60
2022/08/23 02:27:35;;;;;;;;;4.00;4.00;;;29.16;97236.73;;;;119016;1189;24876;-60
2022/08/23 02:30:03;;;;;;;;;7.50;5.25;;;29.15;97242.02;;;;118956;1190;25054;-62
2022/08/23 02:32:31;;;;;;;;;6.00;5.50;;;29.14;97251.64;;;;118954;1191;25146;-61
2022/08/23 02:35:00;;;;;;;;;5.50;5.50;;;29.14;97249.96;;;;119031;1189;24832;-67
2022/08/23 02:37:33;;;;;;;;;2.00;2.00;;;29.14;97254.30;;;;119012;1190;26227;-61
2022/08/23 02:40:03;;;;;;;;;9.00;5.00;;;29.14;97255.59;;;;119032;1189;25383;-66
2022/08/23 02:42:32;;;;;;;;;6.75;6.75;;;29.14;97255.98;;;;119023;1189;24972;-61
2022/08/23 02:44:59;;;;;;;;;4.00;3.50;;;29.13;97257.49;;;;119026;1189;25098;-61
2022/08/23 02:47:28;;;;;;;;;4.75;4.75;;;29.12;97264.36;;;;119022;1189;25997;-64
2022/08/23 02:49:57;;;;;;;;;8.00;4.00;;;29.12;97269.96;;;;119044;1189;25779;-60
2022/08/23 02:52:25;;;;;;;;;3.75;3.00;;;29.10;97271.06;;;;119022;1189;24924;-60
2022/08/23 02:54:52;;;;;;;;;6.50;4.50;;;29.10;97270.91;;;;119051;1190;25556;-60
2022/08/23 02:57:25;;;;;;;;;5.50;4.25;;;29.10;97270.30;;;;119051;1190;25740;-62
2022/08/23 02:59:54;;;;;;;;;9.00;4.25;;;29.12;97272.73;;;;119056;1190;25369;-61
2022/08/23 03:02:22;;;;;;;;;4.00;4.00;;;29.10;97273.20;;;;119033;1189;25261;-63
2022/08/23 03:04:51;;;;;;;;;3.50;3.50;;;29.10;97276.27;;;;119038;1189;24906;-61
2022/08/23 03:07:18;;;;;;;;;6.25;4.00;;;29.09;97275.13;;;;119030;1189;24889;-60
2022/08/23 03:09:46;;;;;;;;;7.00;6.00;;;29.08;97279.95;;;;119045;1189;26532;-61
2022/08/23 03:12:14;;;;;;;;;5.00;5.00;;;29.08;97284.36;;;;119049;1189;25096;-62
2022/08/23 03:14:42;;;;;;;;;6.25;5.00;;;29.07;97280.15;;;;119034;1189;25396;-62
2022/08/23 03:17:10;;;;;;;;;5.25;4.50;;;29.06;97282.30;;;;119006;1189;24854;-62
2022/08/23 03:19:38;;;;;;;;;7.75;4.00;;;29.05;97285.60;;;;119016;1189;25344;-61
2022/08/23 03:22:06;;;;;;;;;6.75;4.25;;;29.05;97290.09;;;;118943;1190;26379;-61
2022/08/23 03:24:35;;;;;;;;;6.00;4.00;;;29.05;97293.30;;;;119001;1188;25436;-61
2022/08/23 03:27:04;;;;;;;;;5.50;4.25;;;29.05;97295.58;;;;119013;1189;25550;-61
2022/08/23 03:29:32;;;;;;;;;2.75;2.75;;;29.07;97301.10;;;;118979;1190;24757;-61
2022/08/23 03:32:01;;;;;;;;;6.25;6.25;;;29.07;97302.00;;;;119052;1189;25138;-61
2022/08/23 03:34:29;;;;;;;;;8.75;6.00;;;29.07;97309.87;;;;119017;1189;26281;-62
2022/08/23 03:36:57;;;;;;;;;6.00;6.00;;;29.07;97314.02;;;;119029;1189;26307;-63
2022/08/23 03:39:25;;;;;;;;;5.00;5.00;;;29.06;97314.77;;;;119026;1189;25720;-60
2022/08/23 03:41:53;;;;;;;;;4.00;4.00;;;29.06;97306.80;;;;119054;1189;25528;-65
2022/08/23 03:44:21;;;;;;;;;4.00;4.00;;;29.04;97308.39;;;;119020;1189;24910;-65
2022/08/23 03:46:49;;;;;;;;;5.50;5.50;;;29.05;97308.89;;;;119037;1189;25317;-61
2022/08/23 03:49:18;;;;;;;;;6.25;6.25;;;29.04;97306.09;;;;119029;1190;25981;-61
2022/08/23 03:51:46;;;;;;;;;7.50;6.25;;;29.04;97303.39;;;;119046;1190;25531;-64
2022/08/23 03:54:14;;;;;;;;;9.25;6.50;;;29.03;97309.08;;;;119014;1189;25496;-64
2022/08/23 03:56:52;;;;;;;;;8.50;6.75;;;29.03;97312.77;;;;119035;1189;24868;-65
2022/08/23 03:59:19;;;;;;;;;6.25;5.00;;;28.96;97311.81;;;;119012;1189;25388;-62
2022/08/23 04:01:48;;;;;;;;;6.25;5.75;;;28.91;97311.48;;;;119033;1189;25393;-62
2022/08/23 04:04:16;;;;;;;;;6.00;6.00;;;28.86;97311.19;;;;119006;1189;25202;-62
2022/08/23 04:06:45;;;;;;;;;9.75;8.50;;;28.82;97310.54;;;;119046;1189;25871;-62
2022/08/23 04:09:14;;;;;;;;;8.00;8.00;;;28.82;97310.02;;;;119027;1190;25549;-62
2022/08/23 04:11:42;;;;;;;;;8.75;8.50;;;28.83;97311.05;;;;119061;1189;25368;-62
2022/08/23 04:14:11;;;;;;;;;8.00;8.00;;;28.82;97313.09;;;;119017;1189;25306;-63
2022/08/23 04:16:40;;;;;;;;;6.25;5.00;;;28.79;97312.90;;;;119030;1189;25512;-63
2022/08/23 04:19:13;;;;;;;;;7.50;7.50;;;28.73;97308.77;;;;119033;1189;25683;-63
2022/08/23 04:21:48;;;;;;;;;6.00;6.00;;;28.64;97312.11;;;;118967;1189;25729;-59
2022/08/23 04:24:17;;;;;;;;;13.25;9.50;;;28.58;97317.69;;;;118982;1189;24936;-60
2022/08/23 04:26:45;;;;;;;;;17.00;13.00;;;28.66;97319.27;;;;118981;1189;24993;-61
2022/08/23 04:29:16;;;;;;;;;20.50;15.25;;;28.67;97320.60;;;;118979;1190;25515;-61
2022/08/23 04:32:02;;;;;;;;;17.25;10.75;;;28.69;97318.59;;;;118989;1189;25486;-62
2022/08/23 04:34:37;;;;;;;;;17.25;11.75;;;28.73;97320.17;;;;118990;1189;27145;-65
2022/08/23 04:37:07;;;;;;;;;27.50;16.75;;;28.79;97320.67;;;;118957;1190;25138;-67
2022/08/23 04:42:23;;;;;;;;;15.25;13.25;;;28.87;97327.36;;;;118963;1189;25569;-61
2022/08/23 04:44:51;;;;;;;;;19.75;14.25;;;28.87;97329.91;;;;119002;1189;26354;-62
2022/08/23 04:47:19;;;;;;;;;5.00;5.00;;;28.91;97330.02;;;;118970;1190;25191;-73
2022/08/23 04:49:47;;;;;;;;;9.25;7.50;;;28.87;97327.94;;;;119001;1189;25307;-69
2022/08/23 04:52:15;;;;;;;;;8.75;6.50;;;28.87;97330.45;;;;118957;1190;25336;-60
2022/08/23 04:54:46;;;;;;;;;10.50;8.50;;;28.81;97329.00;;;;119022;1189;25023;-60
2022/08/23 04:57:14;;;;;;;;;12.75;10.25;;;28.78;97330.33;;;;119008;1190;25381;-59
2022/08/23 04:59:42;;;;;;;;;8.50;7.00;;;28.65;97330.83;;;;119000;1190;25594;-60
2022/08/23 05:02:10;;;;;;;;;11.00;9.00;;;28.58;97333.56;;;;118964;1189;26203;-60
2022/08/23 05:04:37;;;;;;;;;11.00;9.50;;;28.57;97335.31;;;;118959;1189;25045;-61
2022/08/23 05:07:05;;;;;;;;;16.75;11.25;;;28.50;97337.02;;;;118932;1189;25293;-70
2022/08/23 05:09:33;;;;;;;;;19.00;12.50;;;28.45;97339.26;;;;118981;1189;25132;-60
2022/08/23 05:12:01;;;;;;;;;21.75;13.00;;;28.40;97334.83;;;;118908;1191;25485;-59
2022/08/23 05:14:29;;;;;;;;;32.00;20.00;;;28.40;97337.09;;;;118985;1188;26456;-65
2022/08/23 05:16:57;;;;;;;;;28.50;21.25;;;28.42;97337.65;;;;118983;1190;25927;-57
2022/08/23 05:19:24;;;;;;;;;24.75;18.50;;;28.36;97338.45;;;;118994;1190;26065;-60
2022/08/23 05:21:52;;;;;;;;;25.00;18.50;;;28.36;97332.44;;;;118934;1189;26285;-58
2022/08/23 05:24:23;;;;;;;;;18.00;15.33;;;28.34;97333.13;;;;118937;1189;25598;-58
2022/08/23 05:26:51;;;;;;;;;17.50;10.00;;;28.34;97335.31;;;;118987;1189;24811;-58
2022/08/23 05:29:20;;;;;;;;;14.75;10.75;;;28.33;97338.47;;;;119006;1189;25230;-57
2022/08/23 05:31:48;;;;;;;;;16.25;10.50;;;28.33;97342.28;;;;119013;1189;25059;-58
2022/08/23 05:34:16;;;;;;;;;15.00;9.00;;;28.30;97342.97;;;;118967;1189;25378;-57
2022/08/23 05:36:49;;;;;;;;;14.50;9.50;;;28.31;97345.50;;;;118991;1189;25166;-59
2022/08/23 05:39:22;;;;;;;;;8.25;7.00;;;28.33;97347.20;;;;118979;1189;25459;-58
2022/08/23 05:42:05;;;;;;;;;7.50;6.75;;;28.37;97349.29;;;;118973;1189;25264;-58
2022/08/23 05:44:33;;;;;;;;;10.75;8.50;;;28.37;97351.00;;;;118981;1188;26264;-56
2022/08/23 05:47:05;;;;;;;;;9.75;8.00;;;28.36;97352.84;;;;118985;1189;26926;-57
2022/08/23 05:49:38;;;;;;;;;8.75;8.50;;;28.30;97354.70;;;;118985;1189;25682;-57
2022/08/23 05:52:10;;;;;;;;;10.00;9.25;;;28.29;97356.34;;;;119004;1189;26256;-56
2022/08/23 05:54:39;;;;;;;;;7.75;7.75;;;28.28;97358.95;;;;118976;1190;25044;-57
2022/08/23 05:57:09;;;;;;;;;8.00;8.00;;;28.23;97358.59;;;;118992;1190;26189;-56
2022/08/23 05:59:37;;;;;;;;;7.25;6.25;;;28.19;97356.41;;;;118975;1190;26322;-56
2022/08/23 06:02:05;;;;;;;;;7.25;6.50;;;28.17;97357.39;;;;118980;1189;24921;-59
2022/08/23 06:04:33;;;;;;;;;7.67;6.33;;;28.14;97363.95;;;;119010;1190;25462;-57
2022/08/23 06:07:01;;;;;;;;;8.33;7.67;;;28.11;97365.66;;;;118992;1189;27090;-57
2022/08/23 06:09:29;;;;;;;;;8.50;7.75;;;28.15;97368.06;;;;118959;1190;25786;-57
2022/08/23 06:11:58;;;;;;;;;9.25;8.75;;;28.18;97370.14;;;;119009;1190;25255;-58
2022/08/23 06:14:26;;;;;;;;;9.50;8.50;;;28.21;97371.27;;;;118967;1189;25951;-58
2022/08/23 06:16:54;;;;;;;;;8.75;7.75;;;28.24;97374.33;;;;119024;1190;25204;-58
2022/08/23 06:19:23;;;;;;;;;8.00;6.25;;;28.22;97373.70;;;;118962;1190;25399;-58
2022/08/23 06:21:51;;;;;;;;;6.75;5.25;;;28.27;97373.79;;;;118982;1189;26206;-57
2022/08/23 06:24:22;;;;;;;;;8.00;7.50;;;28.25;97375.02;;;;119003;1190;26266;-59
2022/08/23 06:26:50;;;;;;;;;5.00;5.00;;;28.24;97367.79;;;;118998;1188;25137;-58
2022/08/23 06:29:18;;;;;;;;;8.25;7.50;;;28.20;97367.00;;;;118980;1189;25635;-58
2022/08/23 06:31:50;;;;;;;;;9.00;7.00;;;28.23;97363.23;;;;119000;1190;25427;-58
2022/08/23 06:34:23;;;;;;;;;7.25;6.25;;;28.29;97364.84;;;;118997;1190;25310;-58
2022/08/23 06:36:54;;;;;;;;;8.75;8.00;;;28.35;97365.45;;;;118976;1190;25326;-58
2022/08/23 06:39:25;;;;;;;;;9.75;7.75;;;28.37;97368.06;;;;118995;1189;25528;-58
2022/08/23 06:41:59;;;;;;;;;6.00;5.50;;;28.39;97376.38;;;;119027;1188;25155;-57
2022/08/23 06:44:28;;;;;;;;;10.00;6.25;;;28.41;97376.95;;;;119007;1190;25042;-57
2022/08/23 06:46:56;;;;;;;;;9.00;7.75;;;28.46;97380.05;;;;118989;1190;24759;-58
2022/08/23 06:49:26;;;;;;;;;6.50;6.50;;;28.49;97380.15;;;;118998;1190;25558;-57
2022/08/23 06:51:56;;;;;;;;;8.25;8.00;;;28.53;97379.41;;;;118988;1188;25434;-58
2022/08/23 06:54:26;;;;;;;;;5.50;5.25;;;28.55;97375.75;;;;118983;1189;25391;-59
2022/08/23 06:56:57;;;;;;;;;7.25;5.00;;;28.57;97375.63;;;;119009;1190;25332;-57
2022/08/23 06:59:26;;;;;;;;;7.75;7.75;;;28.60;97374.16;;;;118990;1189;26300;-57
2022/08/23 07:02:03;;;;;;;;;8.50;8.25;;;28.60;97376.74;;;;118991;1189;25635;-57
2022/08/23 07:04:39;;;;;;;;;10.75;9.00;;;28.61;97377.64;;;;118990;1190;25659;-58
2022/08/23 07:07:08;;;;;;;;;10.25;8.50;;;28.64;97376.45;;;;118981;1189;25138;-57
2022/08/23 07:09:39;;;;;;;;;9.00;6.25;;;28.64;97375.58;;;;118987;1189;25777;-56
2022/08/23 07:12:07;;;;;;;;;6.25;5.50;;;28.65;97379.38;;;;119004;1189;26381;-57
2022/08/23 07:14:36;;;;;;;;;11.00;9.00;;;28.66;97378.91;;;;118935;1189;25749;-57
2022/08/23 07:17:04;;;;;;;;;9.00;7.50;;;28.68;97378.86;;;;118994;1189;25529;-58
2022/08/23 07:19:34;;;;;;;;;12.00;9.00;;;28.70;97378.05;;;;118934;1191;25543;-57
2022/08/23 07:22:03;;;;;;;;;9.00;9.00;;;28.71;97379.20;;;;119015;1189;25033;-57
2022/08/23 07:24:31;;;;;;;;;9.25;6.25;;;28.73;97376.60;;;;118961;1190;25606;-57
2022/08/23 07:27:05;;;;;;;;;10.75;7.50;;;28.75;97379.42;;;;119003;1190;25901;-57
2022/08/23 07:29:35;;;;;;;;;12.75;8.75;;;28.78;97383.45;;;;119003;1190;26097;-57
2022/08/23 07:32:03;;;;;;;;;12.75;10.25;;;28.80;97384.60;;;;119018;1189;24833;-58
2022/08/23 07:34:32;;;;;;;;;11.25;10.25;;;28.82;97385.89;;;;119018;1188;25045;-57
2022/08/23 07:37:00;;;;;;;;;11.25;6.25;;;28.86;97386.69;;;;118962;1189;25239;-58
2022/08/23 07:39:30;;;;;;;;;12.50;9.50;;;28.86;97384.93;;;;119027;1189;24841;-58
2022/08/23 07:42:00;;;;;;;;;11.00;10.33;;;28.85;97382.86;;;;118989;1189;24911;-61
2022/08/23 07:44:47;;;;;;;;;10.50;8.50;;;28.91;97379.61;;;;119070;1189;25754;-68
2022/08/23 07:47:18;;;;;;;;;9.50;7.75;;;29.22;97381.63;;;;118959;1190;24836;-58
2022/08/23 07:49:46;;;;;;;;;11.75;10.50;;;29.26;97385.98;;;;118930;1189;25139;-61
2022/08/23 07:52:14;;;;;;;;;10.33;8.67;;;29.20;97388.66;;;;118976;1189;25180;-60
2022/08/23 07:54:41;;;;;;;;;12.75;10.50;;;29.15;97388.61;;;;118999;1189;24883;-59
2022/08/23 07:57:16;;;;;;;;;19.75;9.50;;;29.22;97387.90;;;;119000;1190;25357;-63
2022/08/23 07:59:44;;;;;;;;;8.75;7.00;;;29.21;97387.98;;;;118983;1189;25591;-62
2022/08/23 08:02:12;;;;;;;;;13.50;7.75;;;29.21;97386.80;;;;118997;1188;25226;-62
2022/08/23 08:04:41;;;;;;;;;7.75;7.75;;;29.22;97389.98;;;;118971;1189;25711;-61
2022/08/23 08:07:09;;;;;;;;;12.50;11.00;;;29.25;97389.78;;;;118992;1189;25418;-61
2022/08/23 08:09:47;;;;;;;;;11.25;10.50;;;29.29;97393.58;;;;119019;1189;25630;-63
2022/08/23 08:12:15;;;;;;;;;11.00;11.00;;;29.32;97393.04;;;;118987;1189;24985;-61
2022/08/23 08:14:47;;;;;;;;;12.00;10.00;;;29.36;97394.02;;;;119031;1189;25488;-60
2022/08/23 08:17:17;;;;;;;;;10.00;7.50;;;29.38;97394.35;;;;118971;1188;24972;-61
2022/08/23 08:19:45;;;;;;;;;10.50;8.75;;;29.41;97394.13;;;;119019;1189;25206;-61
2022/08/23 08:22:13;;;;;;;;;12.25;8.50;;;29.44;97393.09;;;;118987;1189;26421;-61
2022/08/23 08:24:41;;;;;;;;;10.75;9.25;;;29.43;97392.24;;;;119186;1189;25054;-61
2022/08/23 08:27:10;;;;;;;;;10.25;10.25;;;29.63;97390.54;;;;119087;1189;25514;-62
2022/08/23 08:29:38;;;;;;;;;3.25;2.50;;;29.74;97392.58;;;;118982;1189;25632;-62
2022/08/23 08:32:06;;;;;;;;;7.00;5.75;;;29.68;97390.52;;;;118985;1189;25465;-69
2022/08/23 08:34:41;;;;;;;;;7.75;7.75;;;29.66;97388.09;;;;119017;1189;25603;-62
2022/08/23 08:37:09;;;;;;;;;7.25;4.50;;;29.67;97385.44;;;;119006;1189;25148;-59
2022/08/23 08:39:44;;;;;;;;;7.25;6.25;;;29.74;97383.55;;;;118986;1190;25622;-57
2022/08/23 08:42:31;;;;;;;;;9.00;7.25;;;29.72;97388.08;;;;118986;1191;25434;-64
2022/08/23 08:45:09;;;;;;;;;7.50;6.00;;;29.77;97390.44;;;;118986;1189;24911;-60
2022/08/23 08:48:02;;;;;;;;;9.00;7.50;;;29.79;97388.27;;;;118985;1189;26006;-60
2022/08/23 08:50:39;;;;;;;;;8.25;8.25;;;29.88;97389.38;;;;118985;1189;24803;-60
2022/08/23 08:53:22;;;;;;;;;8.25;7.00;;;29.88;97387.78;;;;118992;1188;26350;-61
2022/08/23 08:55:54;;;;;;;;;8.50;7.00;;;29.86;97389.02;;;;119010;1188;24997;-61
2022/08/23 08:58:41;;;;;;;;;7.75;6.25;;;29.83;97384.39;;;;119007;1189;26307;-62
2022/08/23 09:01:09;;;;;;;;;9.50;8.25;;;29.84;97385.76;;;;118967;1189;24725;-63
2022/08/23 09:03:39;;;;;;;;;8.75;7.75;;;29.81;97389.73;;;;118993;1189;25561;-62
2022/08/23 09:06:44;;;;;;;;;9.50;7.00;;;29.82;97389.59;;;;118972;1189;25108;-61
2022/08/23 09:09:28;;;;;;;;;7.00;6.50;;;29.87;97386.91;;;;118896;1191;25429;-62
2022/08/23 09:12:04;;;;;;;;;8.50;7.25;;;29.90;97385.39;;;;118997;1189;24913;-62
2022/08/23 09:14:51;;;;;;;;;7.50;6.50;;;29.87;97386.98;;;;119020;1188;26141;-62
2022/08/23 09:17:37;;;;;;;;;9.25;8.75;;;29.90;97385.11;;;;118992;1188;25646;-64
2022/08/23 09:20:06;;;;;;;;;6.75;6.75;;;29.92;97381.53;;;;118967;1189;25646;-61
2022/08/23 09:22:40;;;;;;;;;8.50;7.25;;;29.93;97382.76;;;;118993;1189;25053;-63
2022/08/23 09:25:10;;;;;;;;;9.00;8.50;;;29.92;97381.02;;;;119006;1188;26781;-66
2022/08/23 09:27:40;;;;;;;;;6.75;6.00;;;29.96;97381.59;;;;119008;1189;25094;-63
2022/08/23 09:30:11;;;;;;;;;6.25;6.25;;;29.94;97379.16;;;;118950;1188;24747;-60
2022/08/23 09:32:42;;;;;;;;;6.00;6.00;;;29.92;97379.84;;;;118936;1190;25668;-62
2022/08/23 09:35:17;;;;;;;;;10.25;7.00;;;29.94;97378.27;;;;119000;1189;26313;-61
2022/08/23 09:38:02;;;;;;;;;6.00;6.00;;;29.93;97374.98;;;;119035;1189;24836;-61
2022/08/23 09:40:57;;;;;;;;;5.50;5.50;;;30.00;97374.65;;;;119000;1189;25264;-62
2022/08/23 09:43:27;;;;;;;;;7.00;6.00;;;30.04;97370.46;;;;118947;1189;25627;-63
2022/08/23 09:45:57;;;;;;;;;9.50;8.50;;;30.05;97367.64;;;;119025;1189;25763;-62
2022/08/23 09:48:32;;;;;;;;;7.50;7.50;;;30.03;97368.10;;;;119019;1188;24786;-63
2022/08/23 09:51:07;;;;;;;;;7.00;5.00;;;30.05;97364.73;;;;119000;1189;25491;-68
2022/08/23 09:53:35;;;;;;;;;7.00;7.00;;;30.02;97362.86;;;;119010;1187;26431;-65
2022/08/23 09:56:14;;;;;;;;;8.25;7.75;;;30.01;97360.30;;;;118992;1189;25476;-61
2022/08/23 09:58:52;;;;;;;;;6.50;6.50;;;30.03;97362.78;;;;118998;1189;25689;-63
2022/08/23 10:01:24;;;;;;;;;7.00;6.25;;;30.06;97367.88;;;;119005;1189;25607;-63
2022/08/23 10:04:10;;;;;;;;;8.00;7.75;;;30.05;97362.65;;;;119011;1189;25383;-63
2022/08/23 10:06:39;;;;;;;;;10.00;7.50;;;30.00;97359.46;;;;118953;1189;25627;-63
2022/08/23 10:09:08;;;;;;;;;8.00;6.75;;;29.98;97355.11;;;;119017;1189;25453;-65
2022/08/23 10:11:45;;;;;;;;;7.67;6.00;;;29.98;97359.91;;;;118984;1189;25266;-69
2022/08/23 10:14:16;;;;;;;;;9.00;8.25;;;30.00;97354.95;;;;119039;1188;25720;-61
2022/08/23 10:17:07;;;;;;;;;10.00;8.25;;;30.02;97356.34;;;;118999;1188;25803;-62
2022/08/23 10:20:04;;;;;;;;;8.00;7.33;;;30.10;97357.58;;;;118989;1189;25505;-63
2022/08/23 10:22:44;;;;;;;;;10.75;8.25;;;30.12;97357.06;;;;119002;1189;24784;-63
2022/08/23 10:25:22;;;;;;;;;4.50;4.25;;;30.14;97354.77;;;;119032;1188;25980;-62
2022/08/23 10:31:07;;;;;;;;;7.50;6.00;;;30.17;97350.92;;;;119049;1189;25359;-63
2022/08/23 10:33:48;;;;;;;;;8.75;6.00;;;30.19;97354.32;;;;118973;1189;25517;-57
2022/08/23 10:36:30;;;;;;;;;9.75;9.75;;;30.14;97351.05;;;;118977;1189;25824;-67
2022/08/23 10:39:02;;;;;;;;;10.25;7.75;;;30.12;97347.41;;;;118952;1190;25643;-70
2022/08/23 10:41:47;;;;;;;;;3.50;2.00;;;30.13;97347.16;;;;118988;1189;25286;-62
2022/08/23 10:44:34;;;;;;;;;7.50;6.00;;;30.14;97343.20;;;;118996;1190;25247;-62
2022/08/23 10:47:33;;;;;;;;;6.75;6.75;;;30.12;97342.02;;;;118985;1189;25322;-61
2022/08/23 10:50:12;;;;;;;;;9.50;9.00;;;30.12;97335.91;;;;118997;1189;24933;-60
2022/08/23 10:52:49;;;;;;;;;8.75;8.25;;;30.09;97334.33;;;;119016;1188;25214;-61
2022/08/23 10:55:34;;;;;;;;;9.25;8.75;;;30.08;97338.08;;;;118943;1189;24958;-60
2022/08/23 10:58:05;;;;;;;;;7.50;7.00;;;30.16;97336.27;;;;119020;1189;26077;-59
2022/08/23 11:00:36;;;;;;;;;8.00;8.00;;;30.22;97331.73;;;;118982;1189;25075;-59
2022/08/23 11:03:27;;;;;;;;;9.50;9.50;;;30.18;97328.92;;;;118960;1190;25784;-58
2022/08/23 11:06:24;;;;;;;;;12.00;9.67;;;30.22;97323.92;;;;119004;1189;25051;-60
2022/08/23 11:09:03;;;;;;;;;12.00;10.00;;;30.21;97323.04;;;;118969;1189;25645;-65
2022/08/23 11:12:00;;;;;;;;;13.00;10.25;;;30.20;97322.24;;;;119009;1189;25620;-62
2022/08/23 11:14:59;;;;;;;;;13.00;11.50;;;30.23;97320.06;;;;118992;1189;25509;-62
2022/08/23 11:17:56;;;;;;;;;12.25;10.25;;;30.27;97318.15;;;;118913;1190;25264;-63
2022/08/23 11:21:07;;;;;;;;;10.75;10.75;;;30.31;97313.79;;;;118951;1189;25695;-64
2022/08/23 11:23:41;;;;;;;;;11.50;11.50;;;30.38;97313.46;;;;118481;1192;26345;-61
2022/08/23 11:26:35;;;;;;;;;12.00;12.00;;;30.33;97307.19;;;;118469;1193;25222;-62
2022/08/23 11:29:05;;;;;;;;;14.33;13.33;;;30.34;97304.23;;;;118841;1188;25191;-62
2022/08/23 11:32:05;;;;;;;;;15.25;13.00;;;30.35;97300.08;;;;118995;1189;24918;-62
2022/08/23 11:34:41;;;;;;;;;12.75;11.25;;;30.33;97299.19;;;;119010;1190;25384;-62
2022/08/23 11:37:18;;;;;;;;;16.25;11.75;;;30.29;97299.90;;;;118920;1189;25579;-61
2022/08/23 11:40:02;;;;;;;;;12.00;10.75;;;30.32;97298.20;;;;118971;1189;24953;-65
2022/08/23 11:42:36;;;;;;;;;12.50;11.50;;;30.34;97298.02;;;;118916;1190;25037;-63
2022/08/23 11:45:26;;;;;;;;;14.33;12.00;;;30.32;97298.89;;;;119009;1189;25390;-66
2022/08/23 11:48:21;;;;;;;;;10.33;9.67;;;30.28;97300.77;;;;118952;1189;25272;-62
2022/08/23 11:51:19;;;;;;;;;13.25;11.25;;;30.30;97296.06;;;;118973;1190;26160;-63
2022/08/23 11:53:52;;;;;;;;;11.25;10.00;;;30.33;97291.47;;;;118968;1190;26112;-63
2022/08/23 11:56:45;;;;;;;;;12.25;11.00;;;30.30;97291.08;;;;118973;1189;25212;-62
2022/08/23 11:59:21;;;;;;;;;9.50;9.50;;;30.32;97292.43;;;;118994;1189;24894;-58
2022/08/23 12:01:50;;;;;;;;;11.75;11.75;;;30.34;97288.98;;;;118992;1190;25108;-63
2022/08/23 12:04:41;;;;;;;;;14.50;10.50;;;30.34;97286.65;;;;118975;1190;25130;-64
2022/08/23 12:07:12;;;;;;;;;10.50;10.00;;;30.37;97285.63;;;;118994;1189;25376;-60
2022/08/23 12:09:39;;;;;;;;;8.50;6.75;;;30.36;97286.14;;;;118987;1189;25097;-62
2022/08/23 12:12:27;;;;;;;;;9.25;9.00;;;30.38;97286.11;;;;118969;1189;25073;-61
2022/08/23 12:14:59;;;;;;;;;13.50;11.50;;;30.39;97287.41;;;;119000;1190;25224;-61
2022/08/23 12:17:27;;;;;;;;;11.00;10.25;;;30.41;97285.42;;;;118983;1189;27084;-64
2022/08/23 12:20:10;;;;;;;;;15.00;11.25;;;30.39;97287.81;;;;119000;1190;25652;-63
2022/08/23 12:22:56;;;;;;;;;15.00;11.25;;;30.41;97289.98;;;;118974;1189;25063;-63
2022/08/23 12:25:25;;;;;;;;;10.75;9.00;;;30.44;97292.08;;;;118988;1189;25321;-61
2022/08/23 12:28:06;;;;;;;;;11.50;9.25;;;30.41;97291.59;;;;118997;1190;25924;-62
2022/08/23 12:31:10;;;;;;;;;9.75;8.50;;;30.42;97290.73;;;;119010;1190;26428;-64
2022/08/23 12:33:47;;;;;;;;;9.25;9.25;;;30.53;97290.96;;;;118920;1190;25281;-60
2022/08/23 12:36:53;;;;;;;;;10.75;8.75;;;30.56;97290.98;;;;119002;1189;25598;-60
2022/08/23 12:39:34;;;;;;;;;13.00;10.00;;;30.60;97286.62;;;;118986;1190;25867;-63
2022/08/23 12:42:05;;;;;;;;;10.00;10.00;;;30.61;97286.80;;;;119014;1190;24989;-63
2022/08/23 12:44:33;;;;;;;;;10.33;10.33;;;30.63;97281.63;;;;118995;1189;25030;-65
2022/08/23 12:47:19;;;;;;;;;8.75;8.75;;;30.64;97280.95;;;;118977;1189;25476;-63
2022/08/23 12:49:59;;;;;;;;;12.25;10.00;;;30.67;97276.95;;;;118961;1189;25044;-61
2022/08/23 12:52:32;;;;;;;;;10.33;9.00;;;30.70;97275.03;;;;118989;1189;25720;-60